sensor_id;sensor_type;location;lat;lon;timestamp;pressure;altitude;pressure_sealevel;temperature;humidity
62952;BME280;52163;52.212;-1.002;2023-02-28T00:00:47;102285.79;;;4.02;93.74
62952;BME280;52163;52.212;-1.002;2023-02-28T00:03:13;102287.04;;;3.97;93.85
62952;BME280;52163;52.212;-1.002;2023-02-28T00:05:38;102289.33;;;3.94;94.22
62952;BME280;52163;52.212;-1.002;2023-02-28T00:08:04;102291.97;;;3.91;94.17
62952;BME280;52163;52.212;-1.002;2023-02-28T00:10:30;102300.00;;;3.91;94.28
62952;BME280;52163;52.212;-1.002;2023-02-28T00:13:00;102305.95;;;3.94;94.54
62952;BME280;52163;52.212;-1.002;2023-02-28T00:15:26;102302.41;;;3.99;95.24
62952;BME280;52163;52.212;-1.002;2023-02-28T00:17:52;102299.77;;;4.05;95.15
62952;BME280;52163;52.212;-1.002;2023-02-28T00:20:18;102303.06;;;4.10;95.13
62952;BME280;52163;52.212;-1.002;2023-02-28T00:22:45;102303.06;;;4.13;95.38
62952;BME280;52163;52.212;-1.002;2023-02-28T00:25:13;102302.36;;;4.14;94.93
62952;BME280;52163;52.212;-1.002;2023-02-28T00:27:39;102299.21;;;4.14;95.14
62952;BME280;52163;52.212;-1.002;2023-02-28T00:30:07;102304.63;;;4.14;95.08
62952;BME280;52163;52.212;-1.002;2023-02-28T00:32:34;102305.69;;;4.14;94.94
62952;BME280;52163;52.212;-1.002;2023-02-28T00:35:00;102300.77;;;4.16;95.56
62952;BME280;52163;52.212;-1.002;2023-02-28T00:37:25;102303.02;;;4.21;95.84
62952;BME280;52163;52.212;-1.002;2023-02-28T00:39:51;102301.43;;;4.25;95.59
62952;BME280;52163;52.212;-1.002;2023-02-28T00:42:16;102303.52;;;4.27;95.39
62952;BME280;52163;52.212;-1.002;2023-02-28T00:44:41;102307.37;;;4.25;95.05
62952;BME280;52163;52.212;-1.002;2023-02-28T00:47:07;102304.45;;;4.17;94.43
62952;BME280;52163;52.212;-1.002;2023-02-28T00:49:33;102306.91;;;4.11;94.78
62952;BME280;52163;52.212;-1.002;2023-02-28T00:51:58;102302.73;;;4.05;94.63
62952;BME280;52163;52.212;-1.002;2023-02-28T00:54:24;102306.94;;;4.05;95.21
62952;BME280;52163;52.212;-1.002;2023-02-28T00:56:50;102308.69;;;4.04;95.27
62952;BME280;52163;52.212;-1.002;2023-02-28T00:59:17;102309.20;;;4.06;95.28
62952;BME280;52163;52.212;-1.002;2023-02-28T01:01:44;102311.64;;;4.09;95.55
62952;BME280;52163;52.212;-1.002;2023-02-28T01:04:10;102313.20;;;4.14;95.77
62952;BME280;52163;52.212;-1.002;2023-02-28T01:06:36;102316.52;;;4.17;95.45
62952;BME280;52163;52.212;-1.002;2023-02-28T01:09:03;102312.84;;;4.18;95.27
62952;BME280;52163;52.212;-1.002;2023-02-28T01:11:29;102310.92;;;4.16;95.06
62952;BME280;52163;52.212;-1.002;2023-02-28T01:13:55;102310.58;;;4.14;94.68
62952;BME280;52163;52.212;-1.002;2023-02-28T01:16:20;102313.39;;;4.13;94.74
62952;BME280;52163;52.212;-1.002;2023-02-28T01:18:45;102313.38;;;4.14;95.19
62952;BME280;52163;52.212;-1.002;2023-02-28T01:21:14;102315.83;;;4.14;95.49
62952;BME280;52163;52.212;-1.002;2023-02-28T01:23:39;102320.55;;;4.14;95.45
62952;BME280;52163;52.212;-1.002;2023-02-28T01:26:07;102323.88;;;4.13;95.27
62952;BME280;52163;52.212;-1.002;2023-02-28T01:28:33;102324.93;;;4.14;95.97
62952;BME280;52163;52.212;-1.002;2023-02-28T01:30:59;102328.41;;;4.17;96.57
62952;BME280;52163;52.212;-1.002;2023-02-28T01:33:25;102329.80;;;4.18;96.04
62952;BME280;52163;52.212;-1.002;2023-02-28T01:36:00;102325.61;;;4.15;95.93
62952;BME280;52163;52.212;-1.002;2023-02-28T01:38:26;102324.40;;;4.14;96.17
62952;BME280;52163;52.212;-1.002;2023-02-28T01:40:52;102322.48;;;4.13;96.30
62952;BME280;52163;52.212;-1.002;2023-02-28T01:43:39;102324.05;;;4.14;96.31
62952;BME280;52163;52.212;-1.002;2023-02-28T01:46:17;102327.71;;;4.15;96.47
62952;BME280;52163;52.212;-1.002;2023-02-28T01:51:20;102329.25;;;4.22;97.25
62952;BME280;52163;52.212;-1.002;2023-02-28T01:53:53;102325.73;;;4.24;97.24
62952;BME280;52163;52.212;-1.002;2023-02-28T01:56:24;102322.42;;;4.25;97.00
62952;BME280;52163;52.212;-1.002;2023-02-28T01:58:53;102325.22;;;4.24;96.81
62952;BME280;52163;52.212;-1.002;2023-02-28T02:01:20;102322.44;;;4.24;96.91
62952;BME280;52163;52.212;-1.002;2023-02-28T02:03:54;102325.04;;;4.25;97.11
62952;BME280;52163;52.212;-1.002;2023-02-28T02:06:27;102330.28;;;4.25;96.94
62952;BME280;52163;52.212;-1.002;2023-02-28T02:08:54;102326.44;;;4.26;97.10
62952;BME280;52163;52.212;-1.002;2023-02-28T02:11:22;102329.58;;;4.27;97.14
62952;BME280;52163;52.212;-1.002;2023-02-28T02:16:52;102332.89;;;4.29;97.24
62952;BME280;52163;52.212;-1.002;2023-02-28T02:25:32;102333.94;;;4.29;96.52
62952;BME280;52163;52.212;-1.002;2023-02-28T02:37:27;102323.90;;;4.40;96.88
62952;BME280;52163;52.212;-1.002;2023-02-28T02:39:53;102321.14;;;4.38;96.68
62952;BME280;52163;52.212;-1.002;2023-02-28T02:42:28;102316.60;;;4.35;96.50
62952;BME280;52163;52.212;-1.002;2023-02-28T02:45:25;102312.59;;;4.34;96.43
62952;BME280;52163;52.212;-1.002;2023-02-28T02:47:55;102310.31;;;4.34;96.55
62952;BME280;52163;52.212;-1.002;2023-02-28T02:50:29;102306.63;;;4.35;96.46
62952;BME280;52163;52.212;-1.002;2023-02-28T02:52:59;102306.45;;;4.33;96.50
62952;BME280;52163;52.212;-1.002;2023-02-28T02:55:25;102301.73;;;4.33;96.84
62952;BME280;52163;52.212;-1.002;2023-02-28T02:58:02;102297.71;;;4.31;96.80
62952;BME280;52163;52.212;-1.002;2023-02-28T03:00:53;102297.19;;;4.30;96.94
62952;BME280;52163;52.212;-1.002;2023-02-28T03:03:20;102294.58;;;4.29;97.13
62952;BME280;52163;52.212;-1.002;2023-02-28T03:05:55;102297.54;;;4.30;97.25
62952;BME280;52163;52.212;-1.002;2023-02-28T03:08:21;102295.61;;;4.31;97.43
62952;BME280;52163;52.212;-1.002;2023-02-28T03:10:51;102290.89;;;4.32;97.57
62952;BME280;52163;52.212;-1.002;2023-02-28T03:13:43;102290.52;;;4.34;97.69
62952;BME280;52163;52.212;-1.002;2023-02-28T03:27:04;102298.08;;;4.29;97.89
62952;BME280;52163;52.212;-1.002;2023-02-28T03:29:38;102297.55;;;4.28;97.87
62952;BME280;52163;52.212;-1.002;2023-02-28T03:34:56;102298.06;;;4.31;98.77
62952;BME280;52163;52.212;-1.002;2023-02-28T03:37:24;102298.75;;;4.33;99.00
62952;BME280;52163;52.212;-1.002;2023-02-28T03:40:00;102290.88;;;4.34;98.90
62952;BME280;52163;52.212;-1.002;2023-02-28T03:42:31;102293.33;;;4.34;98.68
62952;BME280;52163;52.212;-1.002;2023-02-28T03:45:10;102293.16;;;4.32;98.49
62952;BME280;52163;52.212;-1.002;2023-02-28T03:47:47;102294.57;;;4.30;98.09
62952;BME280;52163;52.212;-1.002;2023-02-28T03:50:24;102288.63;;;4.29;98.18
62952;BME280;52163;52.212;-1.002;2023-02-28T03:52:58;102285.30;;;4.29;98.17
62952;BME280;52163;52.212;-1.002;2023-02-28T03:55:30;102289.16;;;4.28;98.16
62952;BME280;52163;52.212;-1.002;2023-02-28T03:58:01;102290.91;;;4.26;98.10
62952;BME280;52163;52.212;-1.002;2023-02-28T04:00:37;102286.21;;;4.25;97.74
62952;BME280;52163;52.212;-1.002;2023-02-28T04:03:04;102289.54;;;4.21;97.57
62952;BME280;52163;52.212;-1.002;2023-02-28T04:05:30;102289.20;;;4.19;97.74
62952;BME280;52163;52.212;-1.002;2023-02-28T04:08:07;102293.41;;;4.18;97.89
62952;BME280;52163;52.212;-1.002;2023-02-28T04:10:33;102289.75;;;4.16;97.88
62952;BME280;52163;52.212;-1.002;2023-02-28T04:12:58;102289.60;;;4.14;97.67
62952;BME280;52163;52.212;-1.002;2023-02-28T04:15:24;102294.33;;;4.13;97.77
62952;BME280;52163;52.212;-1.002;2023-02-28T04:17:50;102302.20;;;4.11;97.69
62952;BME280;52163;52.212;-1.002;2023-02-28T04:20:16;102298.70;;;4.08;97.78
62952;BME280;52163;52.212;-1.002;2023-02-28T04:22:41;102298.34;;;4.09;98.38
62952;BME280;52163;52.212;-1.002;2023-02-28T04:25:07;102301.49;;;4.07;98.07
62952;BME280;52163;52.212;-1.002;2023-02-28T04:27:33;102301.48;;;4.09;98.60
62952;BME280;52163;52.212;-1.002;2023-02-28T04:29:59;102304.48;;;4.10;98.47
62952;BME280;52163;52.212;-1.002;2023-02-28T04:32:25;102304.84;;;4.11;98.62
62952;BME280;52163;52.212;-1.002;2023-02-28T04:34:50;102305.00;;;4.12;98.68
62952;BME280;52163;52.212;-1.002;2023-02-28T04:37:15;102307.97;;;4.12;98.37
62952;BME280;52163;52.212;-1.002;2023-02-28T04:39:41;102305.88;;;4.11;98.33
62952;BME280;52163;52.212;-1.002;2023-02-28T04:42:09;102315.14;;;4.10;98.49
62952;BME280;52163;52.212;-1.002;2023-02-28T04:44:35;102315.33;;;4.11;98.63
62952;BME280;52163;52.212;-1.002;2023-02-28T04:47:00;102318.64;;;4.12;98.53
62952;BME280;52163;52.212;-1.002;2023-02-28T04:49:25;102322.98;;;4.15;98.45
62952;BME280;52163;52.212;-1.002;2023-02-28T04:51:51;102317.03;;;4.19;98.78
62952;BME280;52163;52.212;-1.002;2023-02-28T04:54:18;102317.20;;;4.21;98.29
62952;BME280;52163;52.212;-1.002;2023-02-28T04:56:44;102321.39;;;4.22;98.05
62952;BME280;52163;52.212;-1.002;2023-02-28T04:59:09;102320.69;;;4.23;98.31
62952;BME280;52163;52.212;-1.002;2023-02-28T05:01:34;102320.83;;;4.26;98.44
62952;BME280;52163;52.212;-1.002;2023-02-28T05:04:03;102324.86;;;4.26;98.21
62952;BME280;52163;52.212;-1.002;2023-02-28T05:06:31;102327.14;;;4.26;98.15
62952;BME280;52163;52.212;-1.002;2023-02-28T05:08:57;102327.47;;;4.27;97.84
62952;BME280;52163;52.212;-1.002;2023-02-28T05:11:28;102324.85;;;4.28;98.13
62952;BME280;52163;52.212;-1.002;2023-02-28T05:13:58;102325.70;;;4.31;98.59
62952;BME280;52163;52.212;-1.002;2023-02-28T05:16:24;102324.98;;;4.37;98.55
62952;BME280;52163;52.212;-1.002;2023-02-28T05:18:49;102328.11;;;4.40;98.51
62952;BME280;52163;52.212;-1.002;2023-02-28T05:23:49;102325.14;;;4.40;98.11
62952;BME280;52163;52.212;-1.002;2023-02-28T05:26:15;102321.48;;;4.38;97.86
62952;BME280;52163;52.212;-1.002;2023-02-28T05:28:40;102323.58;;;4.38;98.04
62952;BME280;52163;52.212;-1.002;2023-02-28T05:31:06;102330.91;;;4.39;98.24
62952;BME280;52163;52.212;-1.002;2023-02-28T05:33:31;102330.55;;;4.41;97.97
62952;BME280;52163;52.212;-1.002;2023-02-28T05:35:56;102328.63;;;4.43;97.94
62952;BME280;52163;52.212;-1.002;2023-02-28T05:38:22;102330.02;;;4.42;97.54
62952;BME280;52163;52.212;-1.002;2023-02-28T05:40:47;102327.23;;;4.42;97.32
62952;BME280;52163;52.212;-1.002;2023-02-28T05:43:12;102329.15;;;4.42;97.02
62952;BME280;52163;52.212;-1.002;2023-02-28T05:45:38;102324.95;;;4.41;96.63
62952;BME280;52163;52.212;-1.002;2023-02-28T05:48:04;102321.13;;;4.39;96.71
62952;BME280;52163;52.212;-1.002;2023-02-28T05:50:29;102321.65;;;4.38;96.75
62952;BME280;52163;52.212;-1.002;2023-02-28T05:52:55;102321.31;;;4.38;96.51
62952;BME280;52163;52.212;-1.002;2023-02-28T05:55:20;102327.42;;;4.38;96.46
62952;BME280;52163;52.212;-1.002;2023-02-28T05:57:46;102331.11;;;4.39;96.33
62952;BME280;52163;52.212;-1.002;2023-02-28T06:00:12;102332.67;;;4.40;96.19
62952;BME280;52163;52.212;-1.002;2023-02-28T06:02:40;102332.85;;;4.40;96.34
62952;BME280;52163;52.212;-1.002;2023-02-28T06:05:17;102342.11;;;4.40;96.43
62952;BME280;52163;52.212;-1.002;2023-02-28T06:07:43;102343.70;;;4.40;96.28
62952;BME280;52163;52.212;-1.002;2023-02-28T06:10:12;102344.91;;;4.41;96.52
62952;BME280;52163;52.212;-1.002;2023-02-28T06:12:38;102352.08;;;4.42;96.03
62952;BME280;52163;52.212;-1.002;2023-02-28T06:15:04;102348.92;;;4.42;96.02
62952;BME280;52163;52.212;-1.002;2023-02-28T06:17:30;102349.28;;;4.43;96.15
62952;BME280;52163;52.212;-1.002;2023-02-28T06:19:55;102352.42;;;4.43;96.21
62952;BME280;52163;52.212;-1.002;2023-02-28T06:22:21;102355.92;;;4.42;96.22
62952;BME280;52163;52.212;-1.002;2023-02-28T06:24:48;102357.15;;;4.41;96.76
62952;BME280;52163;52.212;-1.002;2023-02-28T06:27:14;102355.94;;;4.40;96.46
62952;BME280;52163;52.212;-1.002;2023-02-28T06:29:39;102356.29;;;4.38;96.42
62952;BME280;52163;52.212;-1.002;2023-02-28T06:32:05;102359.80;;;4.36;96.04
62952;BME280;52163;52.212;-1.002;2023-02-28T06:34:34;102360.16;;;4.34;95.96
62952;BME280;52163;52.212;-1.002;2023-02-28T06:36:59;102357.19;;;4.35;96.06
62952;BME280;52163;52.212;-1.002;2023-02-28T06:39:28;102352.98;;;4.34;95.79
62952;BME280;52163;52.212;-1.002;2023-02-28T06:41:54;102355.27;;;4.32;95.53
62952;BME280;52163;52.212;-1.002;2023-02-28T06:44:19;102352.48;;;4.30;95.70
62952;BME280;52163;52.212;-1.002;2023-02-28T06:46:45;102357.04;;;4.29;95.73
62952;BME280;52163;52.212;-1.002;2023-02-28T06:49:11;102355.30;;;4.27;95.85
62952;BME280;52163;52.212;-1.002;2023-02-28T06:51:40;102353.02;;;4.27;95.79
62952;BME280;52163;52.212;-1.002;2023-02-28T06:54:07;102357.91;;;4.28;95.82
62952;BME280;52163;52.212;-1.002;2023-02-28T06:56:35;102359.13;;;4.30;95.80
62952;BME280;52163;52.212;-1.002;2023-02-28T06:59:01;102360.01;;;4.31;95.87
62952;BME280;52163;52.212;-1.002;2023-02-28T07:01:27;102358.23;;;4.32;96.28
62952;BME280;52163;52.212;-1.002;2023-02-28T07:03:53;102358.24;;;4.32;96.19
62952;BME280;52163;52.212;-1.002;2023-02-28T07:06:23;102356.67;;;4.33;96.11
62952;BME280;52163;52.212;-1.002;2023-02-28T07:08:51;102362.61;;;4.34;96.32
62952;BME280;52163;52.212;-1.002;2023-02-28T07:11:21;102360.69;;;4.35;96.36
62952;BME280;52163;52.212;-1.002;2023-02-28T07:13:48;102362.59;;;4.39;96.49
62952;BME280;52163;52.212;-1.002;2023-02-28T07:16:14;102372.02;;;4.43;96.55
62952;BME280;52163;52.212;-1.002;2023-02-28T07:18:39;102372.16;;;4.47;96.87
62952;BME280;52163;52.212;-1.002;2023-02-28T07:21:07;102371.80;;;4.52;96.66
62952;BME280;52163;52.212;-1.002;2023-02-28T07:23:34;102369.84;;;4.59;96.86
62952;BME280;52163;52.212;-1.002;2023-02-28T07:25:59;102369.64;;;4.63;96.56
62952;BME280;52163;52.212;-1.002;2023-02-28T07:28:25;102369.45;;;4.67;96.32
62952;BME280;52163;52.212;-1.002;2023-02-28T07:30:50;102368.55;;;4.68;96.45
62952;BME280;52163;52.212;-1.002;2023-02-28T07:33:16;102366.80;;;4.71;96.21
62952;BME280;52163;52.212;-1.002;2023-02-28T07:35:42;102365.55;;;4.72;95.93
62952;BME280;52163;52.212;-1.002;2023-02-28T07:38:08;102362.91;;;4.74;96.02
62952;BME280;52163;52.212;-1.002;2023-02-28T07:40:35;102367.09;;;4.78;95.69
62952;BME280;52163;52.212;-1.002;2023-02-28T07:43:02;102367.77;;;4.83;95.74
62952;BME280;52163;52.212;-1.002;2023-02-28T07:45:28;102369.86;;;4.86;95.78
62952;BME280;52163;52.212;-1.002;2023-02-28T07:47:57;102368.06;;;4.90;95.67
62952;BME280;52163;52.212;-1.002;2023-02-28T07:50:23;102365.41;;;4.94;95.45
62952;BME280;52163;52.212;-1.002;2023-02-28T07:52:48;102367.83;;;4.98;95.56
62952;BME280;52163;52.212;-1.002;2023-02-28T07:55:14;102375.35;;;5.00;95.34
62952;BME280;52163;52.212;-1.002;2023-02-28T07:57:40;102380.23;;;5.02;95.23
62952;BME280;52163;52.212;-1.002;2023-02-28T08:00:11;102380.77;;;5.02;95.00
62952;BME280;52163;52.212;-1.002;2023-02-28T08:02:38;102383.73;;;5.04;95.23
62952;BME280;52163;52.212;-1.002;2023-02-28T08:05:05;102382.66;;;5.09;95.48
62952;BME280;52163;52.212;-1.002;2023-02-28T08:07:30;102381.91;;;5.15;95.72
62952;BME280;52163;52.212;-1.002;2023-02-28T08:09:56;102377.48;;;5.19;95.28
62952;BME280;52163;52.212;-1.002;2023-02-28T08:12:21;102380.27;;;5.22;95.40
62952;BME280;52163;52.212;-1.002;2023-02-28T08:14:46;102377.97;;;5.24;95.19
62952;BME280;52163;52.212;-1.002;2023-02-28T08:17:12;102380.24;;;5.25;95.25
62952;BME280;52163;52.212;-1.002;2023-02-28T08:19:38;102380.77;;;5.26;95.18
62952;BME280;52163;52.212;-1.002;2023-02-28T08:22:03;102383.92;;;5.26;95.51
62952;BME280;52163;52.212;-1.002;2023-02-28T08:24:29;102382.85;;;5.27;95.76
62952;BME280;52163;52.212;-1.002;2023-02-28T08:26:55;102378.09;;;5.29;95.79
62952;BME280;52163;52.212;-1.002;2023-02-28T08:29:20;102377.75;;;5.30;95.83
62952;BME280;52163;52.212;-1.002;2023-02-28T08:31:45;102380.55;;;5.30;95.38
62952;BME280;52163;52.212;-1.002;2023-02-28T08:34:14;102379.33;;;5.29;95.53
62952;BME280;52163;52.212;-1.002;2023-02-28T08:36:40;102379.31;;;5.32;95.45
62952;BME280;52163;52.212;-1.002;2023-02-28T08:39:07;102376.48;;;5.34;95.45
62952;BME280;52163;52.212;-1.002;2023-02-28T08:41:33;102377.85;;;5.38;95.41
62952;BME280;52163;52.212;-1.002;2023-02-28T08:43:58;102372.89;;;5.44;95.35
62952;BME280;52163;52.212;-1.002;2023-02-28T08:46:24;102366.84;;;5.54;95.32
62952;BME280;52163;52.212;-1.002;2023-02-28T08:48:54;102368.10;;;5.68;95.33
62952;BME280;52163;52.212;-1.002;2023-02-28T08:51:21;102365.98;;;5.85;94.87
62952;BME280;52163;52.212;-1.002;2023-02-28T08:53:57;102363.34;;;6.05;94.92
62952;BME280;52163;52.212;-1.002;2023-02-28T08:56:23;102368.48;;;6.16;94.68
62952;BME280;52163;52.212;-1.002;2023-02-28T08:58:50;102369.55;;;6.15;94.36
62952;BME280;52163;52.212;-1.002;2023-02-28T09:01:18;102368.14;;;6.14;94.19
62952;BME280;52163;52.212;-1.002;2023-02-28T09:03:45;102369.02;;;6.15;93.70
62952;BME280;52163;52.212;-1.002;2023-02-28T09:06:11;102363.80;;;6.12;93.37
62952;BME280;52163;52.212;-1.002;2023-02-28T09:08:37;102363.83;;;6.09;93.60
62952;BME280;52163;52.212;-1.002;2023-02-28T09:11:04;102368.77;;;6.06;93.03
62952;BME280;52163;52.212;-1.002;2023-02-28T09:13:31;102373.72;;;6.03;92.85
62952;BME280;52163;52.212;-1.002;2023-02-28T09:15:59;102371.79;;;6.03;93.00
62952;BME280;52163;52.212;-1.002;2023-02-28T09:18:26;102365.28;;;6.05;93.02
62952;BME280;52163;52.212;-1.002;2023-02-28T09:20:51;102362.27;;;6.08;93.05
62952;BME280;52163;52.212;-1.002;2023-02-28T09:23:17;102359.42;;;6.12;92.76
62952;BME280;52163;52.212;-1.002;2023-02-28T09:25:47;102359.73;;;6.15;92.70
62952;BME280;52163;52.212;-1.002;2023-02-28T09:28:13;102359.69;;;6.16;92.28
62952;BME280;52163;52.212;-1.002;2023-02-28T09:30:41;102356.06;;;6.13;92.06
62952;BME280;52163;52.212;-1.002;2023-02-28T09:33:07;102357.48;;;6.13;92.12
62952;BME280;52163;52.212;-1.002;2023-02-28T09:35:32;102359.04;;;6.14;92.19
62952;BME280;52163;52.212;-1.002;2023-02-28T09:37:58;102360.54;;;6.19;92.31
62952;BME280;52163;52.212;-1.002;2023-02-28T09:40:24;102358.02;;;6.24;92.53
62952;BME280;52163;52.212;-1.002;2023-02-28T09:42:53;102363.21;;;6.30;92.37
62952;BME280;52163;52.212;-1.002;2023-02-28T09:45:30;102366.15;;;6.33;92.35
62952;BME280;52163;52.212;-1.002;2023-02-28T09:48:03;102368.10;;;6.32;92.22
62952;BME280;52163;52.212;-1.002;2023-02-28T09:50:36;102369.56;;;6.28;91.93
62952;BME280;52163;52.212;-1.002;2023-02-28T09:53:13;102366.11;;;6.23;92.10
62952;BME280;52163;52.212;-1.002;2023-02-28T09:55:48;102368.73;;;6.23;92.18
62952;BME280;52163;52.212;-1.002;2023-02-28T09:58:40;102370.21;;;6.19;92.09
62952;BME280;52163;52.212;-1.002;2023-02-28T10:01:18;102369.41;;;6.12;92.00
62952;BME280;52163;52.212;-1.002;2023-02-28T10:04:14;102376.69;;;6.05;91.89
62952;BME280;52163;52.212;-1.002;2023-02-28T10:06:44;102377.77;;;6.00;92.05
62952;BME280;52163;52.212;-1.002;2023-02-28T10:09:17;102375.98;;;6.04;92.26
62952;BME280;52163;52.212;-1.002;2023-02-28T10:11:46;102380.79;;;6.14;92.56
62952;BME280;52163;52.212;-1.002;2023-02-28T10:14:19;102376.63;;;6.25;92.70
62952;BME280;52163;52.212;-1.002;2023-02-28T10:16:50;102374.34;;;6.39;92.61
62952;BME280;52163;52.212;-1.002;2023-02-28T10:19:44;102374.19;;;6.50;91.92
62952;BME280;52163;52.212;-1.002;2023-02-28T10:22:23;102374.48;;;6.56;91.59
62952;BME280;52163;52.212;-1.002;2023-02-28T10:24:54;102369.36;;;6.57;91.32
62952;BME280;52163;52.212;-1.002;2023-02-28T10:27:29;102368.99;;;6.58;91.57
62952;BME280;52163;52.212;-1.002;2023-02-28T10:29:57;102368.10;;;6.59;91.22
62952;BME280;52163;52.212;-1.002;2023-02-28T10:32:27;102367.98;;;6.56;91.07
62952;BME280;52163;52.212;-1.002;2023-02-28T10:35:16;102366.40;;;6.55;90.81
62952;BME280;52163;52.212;-1.002;2023-02-28T10:37:46;102364.45;;;6.56;90.70
62952;BME280;52163;52.212;-1.002;2023-02-28T10:45:19;102356.73;;;6.56;90.51
62952;BME280;52163;52.212;-1.002;2023-02-28T10:48:01;102356.27;;;6.52;90.28
62952;BME280;52163;52.212;-1.002;2023-02-28T10:58:49;102356.67;;;6.47;90.31
62952;BME280;52163;52.212;-1.002;2023-02-28T11:01:24;102352.16;;;6.43;90.38
62952;BME280;52163;52.212;-1.002;2023-02-28T11:03:52;102351.61;;;6.45;90.44
62952;BME280;52163;52.212;-1.002;2023-02-28T11:06:20;102354.05;;;6.46;90.62
62952;BME280;52163;52.212;-1.002;2023-02-28T11:08:50;102353.34;;;6.46;90.50
62952;BME280;52163;52.212;-1.002;2023-02-28T11:11:17;102351.25;;;6.44;90.58
62952;BME280;52163;52.212;-1.002;2023-02-28T11:13:44;102349.14;;;6.45;90.75
62952;BME280;52163;52.212;-1.002;2023-02-28T11:16:12;102349.98;;;6.49;90.70
62952;BME280;52163;52.212;-1.002;2023-02-28T11:18:53;102341.23;;;6.60;90.67
62952;BME280;52163;52.212;-1.002;2023-02-28T11:21:35;102338.29;;;6.80;90.26
62952;BME280;52163;52.212;-1.002;2023-02-28T11:26:49;102336.98;;;7.08;89.39
62952;BME280;52163;52.212;-1.002;2023-02-28T11:29:24;102334.08;;;7.12;89.32
62952;BME280;52163;52.212;-1.002;2023-02-28T11:32:05;102334.95;;;7.13;88.68
62952;BME280;52163;52.212;-1.002;2023-02-28T11:34:32;102332.34;;;7.11;88.24
62952;BME280;52163;52.212;-1.002;2023-02-28T11:36:59;102333.27;;;7.18;88.25
62952;BME280;52163;52.212;-1.002;2023-02-28T11:39:26;102330.52;;;7.25;87.89
62952;BME280;52163;52.212;-1.002;2023-02-28T11:45:21;102326.55;;;7.21;87.11
62952;BME280;52163;52.212;-1.002;2023-02-28T11:51:20;102318.77;;;7.23;86.44
62952;BME280;52163;52.212;-1.002;2023-02-28T11:54:03;102317.10;;;7.29;86.29
62952;BME280;52163;52.212;-1.002;2023-02-28T11:56:53;102315.08;;;7.34;85.84
62952;BME280;52163;52.212;-1.002;2023-02-28T12:11:39;102291.17;;;7.88;83.65
62952;BME280;52163;52.212;-1.002;2023-02-28T12:19:18;102287.63;;;8.38;82.04
62952;BME280;52163;52.212;-1.002;2023-02-28T12:27:15;102266.11;;;8.71;81.74
62952;BME280;52163;52.212;-1.002;2023-02-28T12:32:48;102258.49;;;8.94;80.70
62952;BME280;52163;52.212;-1.002;2023-02-28T12:35:19;102256.31;;;9.03;79.79
62952;BME280;52163;52.212;-1.002;2023-02-28T12:37:49;102253.10;;;9.18;79.51
62952;BME280;52163;52.212;-1.002;2023-02-28T12:40:22;102246.30;;;9.28;78.88
62952;BME280;52163;52.212;-1.002;2023-02-28T12:43:02;102243.16;;;9.34;78.02
62952;BME280;52163;52.212;-1.002;2023-02-28T12:45:42;102242.74;;;9.30;78.43
62952;BME280;52163;52.212;-1.002;2023-02-28T12:48:14;102243.16;;;9.07;77.89
62952;BME280;52163;52.212;-1.002;2023-02-28T12:50:40;102237.41;;;8.84;78.01
62952;BME280;52163;52.212;-1.002;2023-02-28T12:53:10;102241.10;;;8.63;78.56
62952;BME280;52163;52.212;-1.002;2023-02-28T12:58:42;102235.24;;;8.34;79.41
62952;BME280;52163;52.212;-1.002;2023-02-28T13:01:31;102235.40;;;8.27;79.80
62952;BME280;52163;52.212;-1.002;2023-02-28T13:09:52;102227.73;;;8.55;80.21
62952;BME280;52163;52.212;-1.002;2023-02-28T13:12:19;102219.31;;;8.68;79.85
62952;BME280;52163;52.212;-1.002;2023-02-28T13:14:46;102215.16;;;8.79;79.83
62952;BME280;52163;52.212;-1.002;2023-02-28T13:17:18;102212.63;;;8.82;79.37
62952;BME280;52163;52.212;-1.002;2023-02-28T13:22:40;102205.69;;;8.91;79.47
62952;BME280;52163;52.212;-1.002;2023-02-28T13:27:49;102201.06;;;9.12;78.58
62952;BME280;52163;52.212;-1.002;2023-02-28T13:33:31;102195.13;;;9.04;78.51
62952;BME280;52163;52.212;-1.002;2023-02-28T13:36:29;102199.41;;;8.96;78.71
62952;BME280;52163;52.212;-1.002;2023-02-28T13:39:15;102201.20;;;8.80;78.76
62952;BME280;52163;52.212;-1.002;2023-02-28T13:41:46;102205.79;;;8.60;78.75
62952;BME280;52163;52.212;-1.002;2023-02-28T14:05:36;102183.42;;;8.36;80.89
62952;BME280;52163;52.212;-1.002;2023-02-28T14:08:11;102181.33;;;8.43;81.11
62952;BME280;52163;52.212;-1.002;2023-02-28T14:11:02;102183.02;;;8.46;80.50
62952;BME280;52163;52.212;-1.002;2023-02-28T14:13:38;102179.77;;;8.50;81.00
62952;BME280;52163;52.212;-1.002;2023-02-28T14:16:11;102175.90;;;8.50;80.77
62952;BME280;52163;52.212;-1.002;2023-02-28T14:18:42;102171.02;;;8.55;80.80
62952;BME280;52163;52.212;-1.002;2023-02-28T14:21:28;102170.03;;;8.66;80.65
62952;BME280;52163;52.212;-1.002;2023-02-28T14:26:46;102167.48;;;8.76;80.51
62952;BME280;52163;52.212;-1.002;2023-02-28T14:29:57;102166.48;;;8.74;79.63
62952;BME280;52163;52.212;-1.002;2023-02-28T14:32:41;102158.23;;;8.73;79.68
62952;BME280;52163;52.212;-1.002;2023-02-28T14:35:16;102154.03;;;8.79;79.70
62952;BME280;52163;52.212;-1.002;2023-02-28T14:37:44;102151.51;;;8.81;79.06
62952;BME280;52163;52.212;-1.002;2023-02-28T14:40:16;102146.30;;;8.78;78.92
62952;BME280;52163;52.212;-1.002;2023-02-28T14:42:53;102152.77;;;8.73;78.90
62952;BME280;52163;52.212;-1.002;2023-02-28T14:45:21;102146.02;;;8.61;78.99
62952;BME280;52163;52.212;-1.002;2023-02-28T14:47:50;102142.48;;;8.47;78.48
62952;BME280;52163;52.212;-1.002;2023-02-28T14:50:21;102141.39;;;8.34;78.58
62952;BME280;52163;52.212;-1.002;2023-02-28T14:52:51;102139.67;;;8.32;78.91
62952;BME280;52163;52.212;-1.002;2023-02-28T14:55:19;102138.61;;;8.33;79.39
62952;BME280;52163;52.212;-1.002;2023-02-28T14:57:53;102139.77;;;8.35;79.76
62952;BME280;52163;52.212;-1.002;2023-02-28T15:00:29;102144.19;;;8.42;79.59
62952;BME280;52163;52.212;-1.002;2023-02-28T15:02:57;102143.45;;;8.45;79.46
62952;BME280;52163;52.212;-1.002;2023-02-28T15:05:32;102147.44;;;8.47;78.98
62952;BME280;52163;52.212;-1.002;2023-02-28T15:08:04;102139.66;;;8.47;78.84
62952;BME280;52163;52.212;-1.002;2023-02-28T15:10:30;102139.05;;;8.52;79.10